createdAt,value
2022-08-10T00:01:52.242Z,101728.00
2022-08-10T00:04:22.572Z,101729.13
2022-08-10T00:06:54.186Z,101741.84
2022-08-10T00:09:23.958Z,101742.16
2022-08-10T00:11:52.798Z,101736.84
2022-08-10T00:14:21.596Z,101749.47
2022-08-10T00:16:50.233Z,101747.97
2022-08-10T00:19:19.120Z,101750.09
2022-08-10T00:21:48.556Z,101738.75
2022-08-10T00:24:18.635Z,101738.38
2022-08-10T00:27:52.661Z,101735.69
2022-08-10T00:29:36.207Z,101738.50
2022-08-10T00:32:05.236Z,101732.59
2022-08-10T00:34:34.978Z,101733.81
2022-08-10T00:37:03.825Z,101735.81
2022-08-10T00:39:35.904Z,101733.25
2022-08-10T00:42:08.309Z,101731.88
2022-08-10T00:44:38.433Z,101725.91
2022-08-10T00:47:15.333Z,101725.16
2022-08-10T00:49:57.185Z,101722.09
2022-08-10T00:52:27.833Z,101728.00
2022-08-10T00:54:58.965Z,101727.91
2022-08-10T00:57:27.812Z,101730.81
2022-08-10T01:00:02.132Z,101726.66
2022-08-10T01:02:39.359Z,101722.31
2022-08-10T01:05:11.346Z,101724.25
2022-08-10T01:08:11.590Z,101732.47
2022-08-10T01:10:57.128Z,101505.44
2022-08-10T01:13:33.265Z,101725.53
2022-08-10T01:16:14.107Z,101729.19
2022-08-10T01:18:53.668Z,101717.00
2022-08-10T01:21:56.795Z,101729.56
2022-08-10T01:24:52.666Z,101729.78
2022-08-10T01:27:33.180Z,101725.50
2022-08-10T01:30:09.166Z,101728.25
2022-08-10T01:32:49.285Z,101719.50
2022-08-10T01:35:27.958Z,101719.69
2022-08-10T01:38:05.878Z,101723.31
2022-08-10T01:40:39.687Z,101715.28
2022-08-10T01:43:17.386Z,101618.72
2022-08-10T01:45:52.341Z,101716.25
2022-08-10T01:48:34.904Z,101715.66
2022-08-10T01:51:10.641Z,101722.00
2022-08-10T01:53:51.874Z,101716.81
2022-08-10T01:56:23.624Z,101716.81
2022-08-10T01:59:11.253Z,101715.06
2022-08-10T02:01:49.111Z,101715.06
2022-08-10T02:04:23.004Z,101720.50
2022-08-10T02:06:52.739Z,101720.53
2022-08-10T02:09:25.830Z,101726.94
2022-08-10T02:12:07.460Z,101725.41
2022-08-10T02:14:44.005Z,101725.69
2022-08-10T02:17:59.259Z,101717.91
2022-08-10T02:20:12.223Z,101722.53
2022-08-10T02:22:45.332Z,101638.25
2022-08-10T02:25:42.676Z,101700.78
2022-08-10T02:28:08.342Z,101714.44
2022-08-10T02:30:38.360Z,101717.72
2022-08-10T02:33:17.152Z,101716.78
2022-08-10T02:35:56.872Z,101723.91
2022-08-10T02:38:59.203Z,101724.06
2022-08-10T02:45:13.076Z,101722.31
2022-08-10T02:45:15.810Z,101714.50
2022-08-10T02:47:50.715Z,101716.34
2022-08-10T02:50:32.176Z,101725.41
2022-08-10T02:53:08.454Z,101729.03
2022-08-10T02:56:11.460Z,101731.03
2022-08-10T02:58:44.140Z,101740.06
2022-08-10T03:01:17.344Z,101746.31
2022-08-10T03:03:58.419Z,101744.59
2022-08-10T03:06:36.866Z,101744.75
2022-08-10T03:09:10.873Z,101739.59
2022-08-10T03:12:36.157Z,101738.06
2022-08-10T03:14:35.308Z,101743.63
2022-08-10T03:17:07.415Z,101740.16
2022-08-10T03:20:33.308Z,101744.53
2022-08-10T03:22:33.285Z,101746.38
2022-08-10T03:25:03.621Z,101739.34
2022-08-10T03:27:34.787Z,101739.44
2022-08-10T03:30:29.359Z,101743.09
2022-08-10T03:32:56.296Z,101741.34
2022-08-10T03:35:25.896Z,101744.84
2022-08-10T03:37:59.476Z,101747.53
2022-08-10T03:40:46.365Z,101744.03
2022-08-10T03:43:28.146Z,101745.00
2022-08-10T03:46:02.263Z,101746.78
2022-08-10T03:48:48.913Z,101752.13
2022-08-10T03:51:19.885Z,101749.38
2022-08-10T03:54:04.281Z,101744.84
2022-08-10T03:56:43.904Z,101753.69
2022-08-10T03:59:16.347Z,101747.53
2022-08-10T04:02:41.847Z,101748.34
2022-08-10T04:04:38.720Z,101750.09
2022-08-10T04:07:08.043Z,101746.47
2022-08-10T04:09:54.304Z,101745.53
2022-08-10T04:12:27.663Z,101746.38
2022-08-10T04:14:56.622Z,101758.72
2022-08-10T04:18:02.810Z,101760.38
2022-08-10T04:20:46.673Z,101760.16
2022-08-10T04:23:20.000Z,101760.69
2022-08-10T04:25:53.668Z,101763.97
2022-08-10T04:28:24.762Z,101770.72
2022-08-10T04:31:00.021Z,101768.59
2022-08-10T04:33:32.902Z,101771.00
2022-08-10T04:36:04.383Z,101765.38
2022-08-10T04:38:35.248Z,101771.38
2022-08-10T04:41:05.920Z,101771.97
2022-08-10T04:43:37.172Z,101768.16
2022-08-10T04:46:08.863Z,101762.72
2022-08-10T04:49:02.025Z,101763.47
2022-08-10T04:51:32.540Z,101763.28
2022-08-10T04:54:07.331Z,101771.03
2022-08-10T04:56:45.493Z,101773.53
2022-08-10T04:59:17.225Z,101766.34
2022-08-10T05:02:28.057Z,101766.38
2022-08-10T05:04:39.356Z,101768.38
2022-08-10T05:07:16.904Z,101768.34
2022-08-10T05:10:04.066Z,101769.75
2022-08-10T05:12:40.200Z,101762.31
2022-08-10T05:15:11.215Z,101766.63
2022-08-10T05:18:06.859Z,101766.66
2022-08-10T05:20:31.628Z,101769.41
2022-08-10T05:23:00.386Z,101773.53
2022-08-10T05:25:37.470Z,101776.91
2022-08-10T05:28:08.906Z,101781.94
2022-08-10T05:30:37.684Z,101778.09
2022-08-10T05:33:13.881Z,101780.38
2022-08-10T05:35:57.071Z,101779.19
2022-08-10T05:38:29.503Z,101783.22
2022-08-10T05:41:00.018Z,101780.38
2022-08-10T05:43:33.335Z,101782.03
2022-08-10T05:46:19.687Z,101783.81
2022-08-10T05:49:01.220Z,101786.34
2022-08-10T05:51:40.364Z,101786.34
2022-08-10T05:54:15.043Z,101785.25
2022-08-10T05:56:53.632Z,101792.16
2022-08-10T06:00:10.924Z,101794.66
2022-08-10T06:02:31.589Z,101804.34
2022-08-10T06:05:13.514Z,101797.06
2022-08-10T06:07:50.277Z,101799.69
2022-08-10T06:10:35.650Z,101801.44
2022-08-10T06:13:30.524Z,101804.75
2022-08-10T06:16:07.315Z,101809.66
2022-08-10T06:18:37.205Z,101809.59
2022-08-10T06:21:12.933Z,101812.09
2022-08-10T06:23:42.493Z,101811.00
2022-08-10T06:26:17.390Z,101806.56
2022-08-10T06:29:03.642Z,101809.75
2022-08-10T06:31:47.611Z,101812.75
2022-08-10T06:34:20.250Z,101812.59
2022-08-10T06:36:49.706Z,101814.22
2022-08-10T06:39:35.475Z,101814.13
2022-08-10T06:42:17.693Z,101813.03
2022-08-10T06:44:55.855Z,101817.38
2022-08-10T06:47:30.730Z,101816.25
2022-08-10T06:50:09.202Z,101813.06
2022-08-10T06:52:39.433Z,101823.19
2022-08-10T06:55:16.852Z,101819.38
2022-08-10T06:57:59.727Z,101809.34
2022-08-10T07:00:34.169Z,101810.91
2022-08-10T07:03:09.307Z,101814.31
2022-08-10T07:05:41.749Z,101815.69
2022-08-10T07:08:13.068Z,101807.25
2022-08-10T07:10:46.267Z,101807.78
2022-08-10T07:14:14.740Z,101800.88
2022-08-10T07:16:12.364Z,101806.81
2022-08-10T07:18:45.538Z,101800.28
2022-08-10T07:21:16.121Z,101809.66
2022-08-10T07:23:57.128Z,101807.53
2022-08-10T07:26:30.385Z,101805.22
2022-08-10T07:29:00.631Z,101801.13
2022-08-10T07:31:55.040Z,101798.91
2022-08-10T07:34:29.372Z,101814.28
2022-08-10T07:37:07.221Z,101809.31
2022-08-10T07:40:02.371Z,101803.59
2022-08-10T07:42:31.284Z,101806.78
2022-08-10T07:45:00.726Z,101813.34
2022-08-10T07:47:53.832Z,101811.09
2022-08-10T07:50:26.186Z,101806.00
2022-08-10T07:52:58.876Z,101810.91
2022-08-10T07:56:05.054Z,101808.81
2022-08-10T07:58:19.192Z,101804.53
2022-08-10T08:00:49.336Z,101799.59
2022-08-10T08:03:22.011Z,101800.03
2022-08-10T08:05:59.119Z,101805.81
2022-08-10T08:08:33.599Z,101800.28
2022-08-10T08:11:04.374Z,101796.47
2022-08-10T08:13:35.506Z,101801.41
2022-08-10T08:16:18.270Z,101802.63
2022-08-10T08:24:06.838Z,101809.09
2022-08-10T08:24:36.781Z,101800.81
2022-08-10T08:27:07.860Z,101795.00
2022-08-10T08:29:40.263Z,101797.75
2022-08-10T08:32:12.120Z,101796.31
2022-08-10T08:34:45.233Z,101797.00
2022-08-10T08:38:31.604Z,101802.50
2022-08-10T08:40:12.761Z,101800.56
2022-08-10T08:43:21.792Z,101803.63
2022-08-10T08:46:15.365Z,101796.19
2022-08-10T08:50:07.957Z,101794.69
2022-08-10T08:52:51.103Z,101800.09
2022-08-10T08:56:03.611Z,101789.84
2022-08-10T08:58:38.662Z,101790.50
2022-08-10T09:01:22.526Z,101790.44
2022-08-10T09:04:00.230Z,101787.06
2022-08-10T09:06:47.069Z,101791.31
2022-08-10T09:09:56.426Z,101777.28
2022-08-10T09:12:39.585Z,101781.72
2022-08-10T09:15:40.639Z,101779.38
2022-08-10T09:18:16.499Z,101782.50
2022-08-10T09:20:51.796Z,101776.75
2022-08-10T09:24:01.877Z,101773.44
2022-08-10T09:26:22.595Z,101774.63
2022-08-10T09:29:11.913Z,101770.97
2022-08-10T09:31:55.895Z,101762.94
2022-08-10T09:36:25.383Z,101765.97
2022-08-10T09:38:01.924Z,101777.53
2022-08-10T09:40:59.482Z,101775.00
2022-08-10T09:43:42.091Z,101767.38
2022-08-10T09:46:21.580Z,101763.53
2022-08-10T09:49:02.473Z,101767.59
2022-08-10T09:51:46.729Z,101774.50
2022-08-10T09:54:38.291Z,101761.66
2022-08-10T09:57:44.663Z,101749.38
2022-08-10T10:00:20.139Z,101751.84
2022-08-10T10:03:00.795Z,101750.97
2022-08-10T10:05:52.127Z,101740.47
2022-08-10T10:08:33.572Z,101746.41
2022-08-10T10:11:13.303Z,101749.97
2022-08-10T10:14:03.083Z,101750.81
2022-08-10T10:16:47.234Z,101749.06
2022-08-10T10:19:39.937Z,101744.28
2022-08-10T10:22:26.430Z,101743.03
2022-08-10T10:25:00.712Z,101734.69
2022-08-10T10:27:40.625Z,101733.78
2022-08-10T10:30:12.854Z,101731.88
2022-08-10T10:32:59.714Z,101732.47
2022-08-10T10:35:37.799Z,101729.38
2022-08-10T10:38:10.522Z,101722.13
2022-08-10T10:40:45.622Z,101724.53
2022-08-10T10:43:32.292Z,101731.25
2022-08-10T10:46:12.872Z,101709.38
2022-08-10T10:48:53.709Z,101712.41
2022-08-10T10:51:29.779Z,101703.28
2022-08-10T10:54:09.264Z,101706.09
2022-08-10T10:56:50.403Z,101693.31
2022-08-10T10:59:55.591Z,101701.06
2022-08-10T11:02:33.018Z,101691.97
2022-08-10T11:05:22.355Z,101659.84
2022-08-10T11:07:57.235Z,101691.97
2022-08-10T11:10:33.405Z,101696.03
2022-08-10T11:14:25.481Z,101698.91
2022-08-10T11:16:18.720Z,101686.03
2022-08-10T11:19:01.789Z,101680.91
2022-08-10T11:21:44.285Z,101676.00
2022-08-10T11:24:46.777Z,101680.06
2022-08-10T11:27:22.510Z,101680.69
2022-08-10T11:30:09.432Z,101669.19
2022-08-10T11:32:54.644Z,101668.72
2022-08-10T11:35:34.735Z,101667.19
2022-08-10T11:38:33.007Z,101672.56
2022-08-10T11:42:05.496Z,101675.97
2022-08-10T11:44:11.636Z,101659.34
2022-08-10T11:46:48.291Z,101662.34
2022-08-10T11:49:31.012Z,101672.09
2022-08-10T11:52:05.885Z,101661.47
2022-08-10T11:54:52.951Z,101658.75
2022-08-10T11:57:24.118Z,101666.00
2022-08-10T12:00:19.405Z,101650.69
2022-08-10T12:02:55.356Z,101655.22
2022-08-10T12:05:46.611Z,101656.97
2022-08-10T12:10:06.514Z,101653.25
2022-08-10T12:11:17.190Z,101656.03
2022-08-10T12:14:21.011Z,101653.50
2022-08-10T12:16:53.794Z,101653.63
2022-08-10T12:19:30.275Z,101644.91
2022-08-10T12:22:24.491Z,101643.00
2022-08-10T12:24:57.360Z,101641.00
2022-08-10T12:27:32.637Z,101639.84
2022-08-10T12:30:05.427Z,101628.53
2022-08-10T12:32:43.352Z,101634.84
2022-08-10T12:35:26.035Z,101641.06
2022-08-10T12:38:07.119Z,101637.00
2022-08-10T12:40:43.328Z,101630.91
2022-08-10T12:44:06.604Z,101633.09
2022-08-10T12:46:40.322Z,101623.50
2022-08-10T12:49:16.275Z,101620.69
2022-08-10T12:51:49.515Z,101616.22
2022-08-10T12:54:32.022Z,101605.50
2022-08-10T12:57:06.695Z,101605.41
2022-08-10T12:59:43.126Z,101613.25
2022-08-10T13:02:19.994Z,101608.59
2022-08-10T13:04:53.085Z,101608.75
2022-08-10T13:08:25.540Z,101601.25
2022-08-10T13:10:19.373Z,101603.13
2022-08-10T13:12:52.598Z,101596.69
2022-08-10T13:15:48.475Z,101596.69
2022-08-10T13:18:19.648Z,101591.03
2022-08-10T13:20:53.803Z,101595.44
2022-08-10T13:23:26.979Z,101589.38
2022-08-10T13:26:00.630Z,101596.81
2022-08-10T13:28:40.092Z,101601.25
2022-08-10T13:31:17.390Z,101592.84
2022-08-10T13:34:39.953Z,101600.41
2022-08-10T13:36:43.181Z,101597.59
2022-08-10T13:39:13.806Z,101598.09
2022-08-10T13:41:45.907Z,101588.84
2022-08-10T13:44:19.372Z,101584.47
2022-08-10T13:46:52.744Z,101572.34
2022-08-10T13:49:22.782Z,101568.09
2022-08-10T13:51:58.153Z,101566.63
2022-08-10T13:54:37.220Z,101569.09
2022-08-10T13:57:09.518Z,101569.31
2022-08-10T14:00:36.105Z,101564.44
2022-08-10T14:02:36.015Z,101557.59
2022-08-10T14:05:06.274Z,101539.38
2022-08-10T14:07:39.661Z,101542.63
2022-08-10T14:11:09.902Z,101546.22
2022-08-10T14:13:25.644Z,101542.72
2022-08-10T14:15:55.950Z,101535.78
2022-08-10T14:18:27.777Z,101536.28
2022-08-10T14:21:00.294Z,101531.34
2022-08-10T14:23:35.332Z,101527.25
2022-08-10T14:26:09.085Z,101530.72
2022-08-10T14:28:42.453Z,101521.53
2022-08-10T14:31:13.459Z,101525.00
2022-08-10T14:33:50.943Z,101522.66
2022-08-10T14:36:26.497Z,101517.38
2022-08-10T14:38:57.475Z,101531.84
2022-08-10T14:42:04.456Z,101520.09
2022-08-10T14:44:20.391Z,101517.22
2022-08-10T14:46:55.746Z,101514.38
2022-08-10T14:49:27.334Z,101519.06
2022-08-10T14:52:02.434Z,101510.06
2022-08-10T14:54:34.255Z,101512.41
2022-08-10T14:57:11.259Z,101518.09
2022-08-10T15:00:23.119Z,101510.16
2022-08-10T15:02:53.145Z,101517.22
2022-08-10T15:05:39.283Z,101506.47
2022-08-10T15:08:11.403Z,101503.50
2022-08-10T15:10:40.743Z,101501.03
2022-08-10T15:13:33.850Z,101502.66
2022-08-10T15:16:12.455Z,101500.03
2022-08-10T15:18:58.183Z,101502.75
2022-08-10T15:21:42.327Z,101494.44
2022-08-10T15:24:37.653Z,101490.47
2022-08-10T15:27:09.944Z,101487.97
2022-08-10T15:29:57.796Z,101497.53
2022-08-10T15:32:54.159Z,101483.94
2022-08-10T15:35:45.466Z,101486.00
2022-08-10T15:38:26.746Z,101488.25
2022-08-10T15:41:13.498Z,101486.56
2022-08-10T15:43:48.621Z,101483.47
2022-08-10T15:46:30.014Z,101479.00
2022-08-10T15:49:02.638Z,101474.19
2022-08-10T15:51:53.933Z,101479.44
2022-08-10T15:54:33.216Z,101463.59
2022-08-10T15:57:08.029Z,101467.47
2022-08-10T15:59:46.123Z,101472.75
2022-08-10T16:02:18.994Z,101472.16
2022-08-10T16:05:00.651Z,101467.69
2022-08-10T16:08:03.764Z,101446.56
2022-08-10T16:10:45.347Z,101469.88
2022-08-10T16:13:50.702Z,101473.34
2022-08-10T16:16:16.749Z,101468.88
2022-08-10T16:18:47.243Z,101469.88
2022-08-10T16:21:17.915Z,101467.38
2022-08-10T16:24:15.161Z,101464.03
2022-08-10T16:26:49.006Z,101458.44
2022-08-10T16:29:22.696Z,101461.72
2022-08-10T16:31:55.009Z,101465.50
2022-08-10T16:34:27.132Z,101457.41
2022-08-10T16:36:58.271Z,101462.31
2022-08-10T16:39:57.578Z,101453.75
2022-08-10T16:42:22.625Z,101454.31
2022-08-10T16:44:54.444Z,101448.69
2022-08-10T16:47:27.635Z,101446.56
2022-08-10T16:49:59.519Z,101440.56
2022-08-10T16:52:30.618Z,101442.53
2022-08-10T16:55:16.945Z,101440.00
2022-08-10T16:57:58.059Z,101442.31
2022-08-10T17:00:29.152Z,101441.75
2022-08-10T17:03:02.715Z,101444.94
2022-08-10T17:06:01.463Z,101437.44
2022-08-10T17:08:48.563Z,101443.09
2022-08-10T17:11:19.634Z,101440.53
2022-08-10T17:13:50.150Z,101443.69
2022-08-10T17:16:21.768Z,101452.94
2022-08-10T17:18:51.126Z,101452.63
2022-08-10T17:21:22.476Z,101450.44
2022-08-10T17:23:55.642Z,101450.06
2022-08-10T17:26:35.653Z,101447.13
2022-08-10T17:29:17.493Z,101442.28
2022-08-10T17:32:09.682Z,101442.28
2022-08-10T17:34:44.944Z,101449.69
2022-08-10T17:37:20.056Z,101445.28
2022-08-10T17:39:52.714Z,101443.00
2022-08-10T17:42:23.770Z,101442.63
2022-08-10T17:44:56.494Z,101447.88
2022-08-10T17:47:37.599Z,101445.09
2022-08-10T17:50:09.299Z,101442.97
2022-08-10T17:52:38.397Z,101442.72
2022-08-10T17:55:09.881Z,101443.53
2022-08-10T17:58:01.852Z,101445.56
2022-08-10T18:00:34.322Z,101446.47
2022-08-10T18:03:04.208Z,101447.25
2022-08-10T18:05:35.888Z,101452.81
2022-08-10T18:08:14.837Z,101448.09
2022-08-10T18:10:44.335Z,101447.44
2022-08-10T18:13:19.571Z,101450.19
2022-08-10T18:15:51.282Z,101454.28
2022-08-10T18:18:23.133Z,101462.56
2022-08-10T18:21:02.244Z,101456.69
2022-08-10T18:23:35.800Z,101454.22
2022-08-10T18:26:10.731Z,101460.72
2022-08-10T18:28:42.329Z,101384.53
2022-08-10T18:31:21.031Z,101461.91
2022-08-10T18:33:55.043Z,101465.63
2022-08-10T18:36:27.243Z,101462.06
2022-08-10T18:39:00.331Z,101461.91
2022-08-10T18:41:35.395Z,101464.59
2022-08-10T18:44:14.712Z,101468.19
2022-08-10T18:46:48.613Z,101459.09
2022-08-10T18:49:33.147Z,101463.44
2022-08-10T18:52:08.287Z,101471.94
2022-08-10T18:54:44.855Z,101474.28
2022-08-10T18:57:28.926Z,101466.84
2022-08-10T19:00:09.268Z,101473.44
2022-08-10T19:03:17.301Z,101474.50
2022-08-10T19:06:10.679Z,101478.75
2022-08-10T19:09:46.218Z,101480.09
2022-08-10T19:12:30.862Z,101476.81
2022-08-10T19:15:10.986Z,101476.00
2022-08-10T19:18:05.799Z,101480.63
2022-08-10T19:20:42.837Z,101487.41
2022-08-10T19:23:28.171Z,101496.84
2022-08-10T19:26:42.325Z,101490.59
2022-08-10T19:30:08.755Z,101433.91
2022-08-10T19:32:17.059Z,101487.88
2022-08-10T19:34:56.713Z,101480.72
2022-08-10T19:37:35.364Z,101487.72
2022-08-10T19:40:44.035Z,101485.72
2022-08-10T19:43:59.457Z,101491.75
2022-08-10T19:46:27.440Z,101482.81
2022-08-10T19:49:04.360Z,101487.00
2022-08-10T19:51:48.447Z,101485.97
2022-08-10T19:54:26.380Z,101476.44
2022-08-10T19:57:10.346Z,101489.66
2022-08-10T20:00:15.926Z,101478.16
2022-08-10T20:03:03.009Z,101480.38
2022-08-10T20:05:35.119Z,101481.28
2022-08-10T20:08:19.488Z,101483.00
2022-08-10T20:10:56.327Z,101488.41
2022-08-10T20:13:30.730Z,101481.56
2022-08-10T20:16:06.520Z,101480.81
2022-08-10T20:18:42.318Z,101474.84
2022-08-10T20:21:13.975Z,101484.25
2022-08-10T20:24:03.300Z,101484.75
2022-08-10T20:26:44.313Z,101482.28
2022-08-10T20:29:57.121Z,101488.53
2022-08-10T20:32:22.176Z,101492.84
2022-08-10T20:34:59.660Z,101497.69
2022-08-10T20:38:02.675Z,101497.50
2022-08-10T20:40:37.458Z,101491.41
2022-08-10T20:43:20.417Z,101488.19
2022-08-10T20:46:12.084Z,101495.06
2022-08-10T20:48:47.377Z,101493.19
2022-08-10T20:51:23.429Z,101497.41
2022-08-10T20:54:21.387Z,101508.75
2022-08-10T20:57:02.861Z,101506.56
2022-08-10T21:00:04.171Z,101506.75
2022-08-10T21:03:15.926Z,101510.09
2022-08-10T21:06:04.461Z,101502.97
2022-08-10T21:08:52.146Z,101499.06
2022-08-10T21:11:33.268Z,101500.22
2022-08-10T21:14:29.396Z,101499.59
2022-08-10T21:17:17.653Z,101497.13
2022-08-10T21:20:28.699Z,101503.53
2022-08-10T21:23:05.879Z,101505.34
2022-08-10T21:25:49.205Z,101500.53
2022-08-10T21:28:53.150Z,101499.19
2022-08-10T21:31:45.300Z,101504.94
2022-08-10T21:34:35.442Z,101507.06
2022-08-10T21:37:17.809Z,101508.22
2022-08-10T21:40:04.886Z,101504.94
2022-08-10T21:43:08.454Z,101509.63
2022-08-10T21:46:09.180Z,101509.88
2022-08-10T21:49:06.970Z,101509.19
2022-08-10T21:52:04.156Z,101506.72
2022-08-10T21:55:09.017Z,101509.56
2022-08-10T21:58:08.609Z,101509.94
2022-08-10T22:01:01.606Z,101516.81
2022-08-10T22:03:48.536Z,101514.63
2022-08-10T22:06:52.621Z,101509.91
2022-08-10T22:09:47.436Z,101509.91
2022-08-10T22:16:10.021Z,101509.75
2022-08-10T22:19:02.980Z,101511.25
2022-08-10T22:22:19.649Z,101506.69
2022-08-10T22:25:40.249Z,101506.31
2022-08-10T22:28:34.293Z,101495.00
2022-08-10T22:31:25.832Z,101504.88
2022-08-10T22:31:39.207Z,101491.75
2022-08-10T22:35:03.611Z,101505.47
2022-08-10T22:38:07.977Z,101494.03
2022-08-10T22:40:55.347Z,101493.34
2022-08-10T22:43:49.474Z,101384.47
2022-08-10T22:46:42.029Z,101496.38
2022-08-10T22:49:11.807Z,101493.81
2022-08-10T22:51:52.338Z,101500.38
2022-08-10T22:54:58.020Z,101494.34
2022-08-10T22:57:44.572Z,101498.97
2022-08-10T23:00:19.577Z,101488.44
2022-08-10T23:03:08.331Z,101488.38
2022-08-10T23:05:53.360Z,101490.06
2022-08-10T23:08:30.516Z,101493.06
2022-08-10T23:11:09.032Z,101489.75
2022-08-10T23:13:42.431Z,101485.44
2022-08-10T23:16:37.118Z,101491.88
2022-08-10T23:19:11.412Z,101495.59
2022-08-10T23:22:04.991Z,101500.22
2022-08-10T23:24:47.580Z,101494.19
2022-08-10T23:27:38.001Z,101492.66
2022-08-10T23:30:17.970Z,101496.19
2022-08-10T23:32:59.692Z,101494.56
2022-08-10T23:36:05.597Z,101496.47
2022-08-10T23:38:31.394Z,101495.81
2022-08-10T23:41:05.578Z,101497.72
2022-08-10T23:44:03.452Z,101495.91
2022-08-10T23:46:42.477Z,101497.81
2022-08-10T23:49:17.530Z,101508.69
2022-08-10T23:51:55.379Z,101508.69
2022-08-10T23:54:27.497Z,101499.00
2022-08-10T23:57:01.370Z,101509.03
2022-08-10T23:59:33.607Z,101507.47
